sensor_id;sensor_type;location;lat;lon;timestamp;pressure;altitude;pressure_sealevel;temperature;humidity
62632;BME280;48703;51.248;-0.546;2023-05-11T00:01:18;100863;;;10.44;85.04
62632;BME280;48703;51.248;-0.546;2023-05-11T00:04:20;100862;;;10.43;85.32
62632;BME280;48703;51.248;-0.546;2023-05-11T00:07:22;100861;;;10.41;85.68
62632;BME280;48703;51.248;-0.546;2023-05-11T00:10:24;100861;;;10.41;85.28
62632;BME280;48703;51.248;-0.546;2023-05-11T00:13:26;100860;;;10.40;85.61
62632;BME280;48703;51.248;-0.546;2023-05-11T00:16:28;100859;;;10.39;85.10
62632;BME280;48703;51.248;-0.546;2023-05-11T00:19:30;100857;;;10.38;85.72
62632;BME280;48703;51.248;-0.546;2023-05-11T00:22:32;100856;;;10.39;85.68
62632;BME280;48703;51.248;-0.546;2023-05-11T00:25:34;100854;;;10.39;85.88
62632;BME280;48703;51.248;-0.546;2023-05-11T00:28:36;100855;;;10.40;85.86
62632;BME280;48703;51.248;-0.546;2023-05-11T00:31:38;100856;;;10.40;86.00
62632;BME280;48703;51.248;-0.546;2023-05-11T00:34:40;100854;;;10.40;85.76
62632;BME280;48703;51.248;-0.546;2023-05-11T00:37:42;100854;;;10.38;86.05
62632;BME280;48703;51.248;-0.546;2023-05-11T00:40:44;100855;;;10.36;86.29
62632;BME280;48703;51.248;-0.546;2023-05-11T00:43:46;100856;;;10.34;86.35
62632;BME280;48703;51.248;-0.546;2023-05-11T00:46:48;100858;;;10.33;86.31
62632;BME280;48703;51.248;-0.546;2023-05-11T00:49:51;100858;;;10.34;86.64
62632;BME280;48703;51.248;-0.546;2023-05-11T00:52:52;100860;;;10.32;86.82
62632;BME280;48703;51.248;-0.546;2023-05-11T00:55:54;100859;;;10.29;87.06
62632;BME280;48703;51.248;-0.546;2023-05-11T00:58:56;100858;;;10.29;87.26
62632;BME280;48703;51.248;-0.546;2023-05-11T01:01:58;100860;;;10.28;86.76
62632;BME280;48703;51.248;-0.546;2023-05-11T01:05:00;100861;;;10.26;86.66
62632;BME280;48703;51.248;-0.546;2023-05-11T01:08:04;100859;;;10.25;86.84
62632;BME280;48703;51.248;-0.546;2023-05-11T01:11:06;100862;;;10.22;87.14
62632;BME280;48703;51.248;-0.546;2023-05-11T01:14:08;100863;;;10.26;86.71
62632;BME280;48703;51.248;-0.546;2023-05-11T01:17:09;100863;;;10.26;86.72
62632;BME280;48703;51.248;-0.546;2023-05-11T01:20:11;100861;;;10.26;86.94
62632;BME280;48703;51.248;-0.546;2023-05-11T01:23:21;100860;;;10.25;86.93
62632;BME280;48703;51.248;-0.546;2023-05-11T01:26:24;100860;;;10.24;87.30
62632;BME280;48703;51.248;-0.546;2023-05-11T01:30:23;100861;;;10.25;87.18
62632;BME280;48703;51.248;-0.546;2023-05-11T01:32:19;100863;;;10.24;87.01
62632;BME280;48703;51.248;-0.546;2023-05-11T01:35:21;100866;;;10.24;87.18
62632;BME280;48703;51.248;-0.546;2023-05-11T01:38:23;100865;;;10.22;87.52
62632;BME280;48703;51.248;-0.546;2023-05-11T01:41:24;100865;;;10.20;87.61
62632;BME280;48703;51.248;-0.546;2023-05-11T01:44:26;100865;;;10.19;88.27
62632;BME280;48703;51.248;-0.546;2023-05-11T01:47:28;100865;;;10.20;88.06
62632;BME280;48703;51.248;-0.546;2023-05-11T01:50:30;100865;;;10.19;88.49
62632;BME280;48703;51.248;-0.546;2023-05-11T01:53:33;100869;;;10.20;87.99
62632;BME280;48703;51.248;-0.546;2023-05-11T01:56:35;100868;;;10.19;87.88
62632;BME280;48703;51.248;-0.546;2023-05-11T01:59:36;100870;;;10.17;88.25
62632;BME280;48703;51.248;-0.546;2023-05-11T02:02:39;100870;;;10.15;88.58
62632;BME280;48703;51.248;-0.546;2023-05-11T02:05:41;100873;;;10.14;88.40
62632;BME280;48703;51.248;-0.546;2023-05-11T02:08:43;100874;;;10.15;88.28
62632;BME280;48703;51.248;-0.546;2023-05-11T02:11:45;100878;;;10.12;88.81
62632;BME280;48703;51.248;-0.546;2023-05-11T02:14:47;100880;;;10.08;88.83
62632;BME280;48703;51.248;-0.546;2023-05-11T02:17:49;100882;;;10.07;88.89
62632;BME280;48703;51.248;-0.546;2023-05-11T02:20:51;100883;;;10.05;88.76
62632;BME280;48703;51.248;-0.546;2023-05-11T02:23:53;100884;;;10.04;88.68
62632;BME280;48703;51.248;-0.546;2023-05-11T02:26:55;100883;;;10.01;88.66
62632;BME280;48703;51.248;-0.546;2023-05-11T02:29:57;100884;;;10.00;88.88
62632;BME280;48703;51.248;-0.546;2023-05-11T02:33:00;100889;;;9.98;89.24
62632;BME280;48703;51.248;-0.546;2023-05-11T02:36:01;100890;;;9.97;88.97
62632;BME280;48703;51.248;-0.546;2023-05-11T02:39:04;100891;;;9.98;88.83
62632;BME280;48703;51.248;-0.546;2023-05-11T02:42:06;100893;;;9.99;88.87
62632;BME280;48703;51.248;-0.546;2023-05-11T02:45:07;100894;;;9.97;89.27
62632;BME280;48703;51.248;-0.546;2023-05-11T02:48:10;100896;;;9.96;89.33
62632;BME280;48703;51.248;-0.546;2023-05-11T02:51:11;100894;;;9.94;89.61
62632;BME280;48703;51.248;-0.546;2023-05-11T02:54:13;100891;;;9.93;89.19
62632;BME280;48703;51.248;-0.546;2023-05-11T02:57:16;100889;;;9.93;89.39
62632;BME280;48703;51.248;-0.546;2023-05-11T03:00:17;100889;;;9.92;89.02
62632;BME280;48703;51.248;-0.546;2023-05-11T03:03:19;100888;;;9.92;89.18
62632;BME280;48703;51.248;-0.546;2023-05-11T03:06:21;100890;;;9.93;88.95
62632;BME280;48703;51.248;-0.546;2023-05-11T03:09:23;100892;;;9.94;89.40
62632;BME280;48703;51.248;-0.546;2023-05-11T03:12:25;100892;;;9.95;89.34
62632;BME280;48703;51.248;-0.546;2023-05-11T03:15:27;100891;;;9.94;89.40
62632;BME280;48703;51.248;-0.546;2023-05-11T03:18:29;100893;;;9.93;89.61
62632;BME280;48703;51.248;-0.546;2023-05-11T03:21:31;100891;;;9.93;89.35
62632;BME280;48703;51.248;-0.546;2023-05-11T03:24:33;100891;;;9.92;89.48
62632;BME280;48703;51.248;-0.546;2023-05-11T03:27:35;100890;;;9.90;89.63
62632;BME280;48703;51.248;-0.546;2023-05-11T03:30:37;100890;;;9.90;89.66
62632;BME280;48703;51.248;-0.546;2023-05-11T03:33:39;100892;;;9.86;89.52
62632;BME280;48703;51.248;-0.546;2023-05-11T03:36:41;100892;;;9.84;89.95
62632;BME280;48703;51.248;-0.546;2023-05-11T03:39:44;100890;;;9.84;89.99
62632;BME280;48703;51.248;-0.546;2023-05-11T03:42:45;100889;;;9.78;90.55
62632;BME280;48703;51.248;-0.546;2023-05-11T03:45:48;100888;;;9.76;90.28
62632;BME280;48703;51.248;-0.546;2023-05-11T03:48:49;100887;;;9.75;90.32
62632;BME280;48703;51.248;-0.546;2023-05-11T03:51:51;100886;;;9.75;90.12
62632;BME280;48703;51.248;-0.546;2023-05-11T03:54:53;100885;;;9.71;90.36
62632;BME280;48703;51.248;-0.546;2023-05-11T03:57:55;100883;;;9.61;90.98
62632;BME280;48703;51.248;-0.546;2023-05-11T04:00:57;100885;;;9.60;90.93
62632;BME280;48703;51.248;-0.546;2023-05-11T04:03:59;100885;;;9.59;90.87
62632;BME280;48703;51.248;-0.546;2023-05-11T04:07:01;100886;;;9.58;90.78
62632;BME280;48703;51.248;-0.546;2023-05-11T04:10:04;100886;;;9.54;90.98
62632;BME280;48703;51.248;-0.546;2023-05-11T04:13:05;100887;;;9.50;91.10
62632;BME280;48703;51.248;-0.546;2023-05-11T04:16:07;100886;;;9.48;91.10
62632;BME280;48703;51.248;-0.546;2023-05-11T04:19:09;100886;;;9.45;91.49
62632;BME280;48703;51.248;-0.546;2023-05-11T04:22:11;100888;;;9.43;91.31
62632;BME280;48703;51.248;-0.546;2023-05-11T04:25:14;100888;;;9.44;91.44
62632;BME280;48703;51.248;-0.546;2023-05-11T04:28:15;100890;;;9.39;91.70
62632;BME280;48703;51.248;-0.546;2023-05-11T04:31:17;100892;;;9.40;91.75
62632;BME280;48703;51.248;-0.546;2023-05-11T04:34:19;100892;;;9.41;91.68
62632;BME280;48703;51.248;-0.546;2023-05-11T04:37:22;100892;;;9.42;91.89
62632;BME280;48703;51.248;-0.546;2023-05-11T04:40:24;100891;;;9.45;91.88
62632;BME280;48703;51.248;-0.546;2023-05-11T04:43:25;100894;;;9.47;91.49
62632;BME280;48703;51.248;-0.546;2023-05-11T04:46:28;100893;;;9.49;91.81
62632;BME280;48703;51.248;-0.546;2023-05-11T04:49:30;100893;;;9.51;91.55
62632;BME280;48703;51.248;-0.546;2023-05-11T04:52:32;100895;;;9.54;91.27
62632;BME280;48703;51.248;-0.546;2023-05-11T04:55:34;100896;;;9.58;91.48
62632;BME280;48703;51.248;-0.546;2023-05-11T04:58:36;100897;;;9.62;91.50
62632;BME280;48703;51.248;-0.546;2023-05-11T05:01:38;100897;;;9.64;91.20
62632;BME280;48703;51.248;-0.546;2023-05-11T05:04:40;100899;;;9.67;90.94
62632;BME280;48703;51.248;-0.546;2023-05-11T05:07:42;100899;;;9.72;91.47
62632;BME280;48703;51.248;-0.546;2023-05-11T05:10:44;100901;;;9.77;91.54
62632;BME280;48703;51.248;-0.546;2023-05-11T05:13:46;100904;;;9.79;91.66
62632;BME280;48703;51.248;-0.546;2023-05-11T05:16:48;100905;;;9.81;91.23
62632;BME280;48703;51.248;-0.546;2023-05-11T05:19:50;100908;;;9.84;91.35
62632;BME280;48703;51.248;-0.546;2023-05-11T05:22:52;100914;;;9.87;92.21
62632;BME280;48703;51.248;-0.546;2023-05-11T05:25:54;100917;;;9.89;91.89
62632;BME280;48703;51.248;-0.546;2023-05-11T05:28:56;100921;;;9.92;91.75
62632;BME280;48703;51.248;-0.546;2023-05-11T05:31:58;100924;;;9.97;92.50
62632;BME280;48703;51.248;-0.546;2023-05-11T05:35:00;100925;;;9.97;91.90
62632;BME280;48703;51.248;-0.546;2023-05-11T05:38:02;100926;;;10.01;92.28
62632;BME280;48703;51.248;-0.546;2023-05-11T05:41:04;100926;;;10.04;92.28
62632;BME280;48703;51.248;-0.546;2023-05-11T05:44:06;100929;;;10.05;91.94
62632;BME280;48703;51.248;-0.546;2023-05-11T05:47:08;100930;;;10.08;91.48
62632;BME280;48703;51.248;-0.546;2023-05-11T05:50:10;100931;;;10.11;91.12
62632;BME280;48703;51.248;-0.546;2023-05-11T05:53:12;100933;;;10.15;91.64
62632;BME280;48703;51.248;-0.546;2023-05-11T05:56:14;100936;;;10.18;91.74
62632;BME280;48703;51.248;-0.546;2023-05-11T05:59:16;100938;;;10.21;91.55
62632;BME280;48703;51.248;-0.546;2023-05-11T06:02:18;100937;;;10.24;91.42
62632;BME280;48703;51.248;-0.546;2023-05-11T06:05:20;100938;;;10.27;91.38
62632;BME280;48703;51.248;-0.546;2023-05-11T06:08:22;100939;;;10.30;91.09
62632;BME280;48703;51.248;-0.546;2023-05-11T06:11:24;100942;;;10.33;91.22
62632;BME280;48703;51.248;-0.546;2023-05-11T06:14:26;100943;;;10.37;92.04
62632;BME280;48703;51.248;-0.546;2023-05-11T06:17:28;100944;;;10.40;91.95
62632;BME280;48703;51.248;-0.546;2023-05-11T06:20:30;100948;;;10.42;91.63
62632;BME280;48703;51.248;-0.546;2023-05-11T06:23:32;100950;;;10.44;91.75
62632;BME280;48703;51.248;-0.546;2023-05-11T06:26:34;100949;;;10.45;91.60
62632;BME280;48703;51.248;-0.546;2023-05-11T06:29:37;100948;;;10.46;91.65
62632;BME280;48703;51.248;-0.546;2023-05-11T06:32:38;100950;;;10.48;91.74
62632;BME280;48703;51.248;-0.546;2023-05-11T06:35:40;100953;;;10.51;91.48
62632;BME280;48703;51.248;-0.546;2023-05-11T06:38:42;100958;;;10.56;91.34
62632;BME280;48703;51.248;-0.546;2023-05-11T06:41:44;100960;;;10.63;91.54
62632;BME280;48703;51.248;-0.546;2023-05-11T06:44:46;100958;;;10.71;91.97
62632;BME280;48703;51.248;-0.546;2023-05-11T06:47:48;100959;;;10.77;91.10
62632;BME280;48703;51.248;-0.546;2023-05-11T06:50:50;100957;;;10.89;92.10
62632;BME280;48703;51.248;-0.546;2023-05-11T06:53:52;100958;;;10.99;91.53
62632;BME280;48703;51.248;-0.546;2023-05-11T06:56:54;100953;;;11.10;91.22
62632;BME280;48703;51.248;-0.546;2023-05-11T06:59:56;100956;;;11.17;90.54
62632;BME280;48703;51.248;-0.546;2023-05-11T07:02:58;100958;;;11.24;90.30
62632;BME280;48703;51.248;-0.546;2023-05-11T07:06:01;100960;;;11.29;90.09
62632;BME280;48703;51.248;-0.546;2023-05-11T07:09:03;100963;;;11.36;89.79
62632;BME280;48703;51.248;-0.546;2023-05-11T07:12:05;100964;;;11.40;89.56
62632;BME280;48703;51.248;-0.546;2023-05-11T07:15:07;100968;;;11.43;89.99
62632;BME280;48703;51.248;-0.546;2023-05-11T07:18:09;100971;;;11.46;89.71
62632;BME280;48703;51.248;-0.546;2023-05-11T07:21:11;100973;;;11.48;89.52
62632;BME280;48703;51.248;-0.546;2023-05-11T07:24:13;100970;;;11.50;89.58
62632;BME280;48703;51.248;-0.546;2023-05-11T07:27:15;100973;;;11.52;89.53
62632;BME280;48703;51.248;-0.546;2023-05-11T07:30:17;100974;;;11.52;89.53
62632;BME280;48703;51.248;-0.546;2023-05-11T07:33:19;100973;;;11.53;89.69
62632;BME280;48703;51.248;-0.546;2023-05-11T07:36:21;100974;;;11.54;89.82
62632;BME280;48703;51.248;-0.546;2023-05-11T07:39:23;100975;;;11.55;89.86
62632;BME280;48703;51.248;-0.546;2023-05-11T07:42:25;100976;;;11.56;90.31
62632;BME280;48703;51.248;-0.546;2023-05-11T07:45:27;100974;;;11.52;89.38
62632;BME280;48703;51.248;-0.546;2023-05-11T07:48:29;100977;;;11.55;90.11
62632;BME280;48703;51.248;-0.546;2023-05-11T07:51:31;100979;;;11.58;89.87
62632;BME280;48703;51.248;-0.546;2023-05-11T07:54:33;100982;;;11.58;90.10
62632;BME280;48703;51.248;-0.546;2023-05-11T07:57:35;100985;;;11.60;90.74
62632;BME280;48703;51.248;-0.546;2023-05-11T08:00:37;100986;;;11.61;90.78
62632;BME280;48703;51.248;-0.546;2023-05-11T08:03:39;100985;;;11.61;90.95
62632;BME280;48703;51.248;-0.546;2023-05-11T08:06:41;100986;;;11.65;90.91
62632;BME280;48703;51.248;-0.546;2023-05-11T08:09:43;100985;;;11.70;90.81
62632;BME280;48703;51.248;-0.546;2023-05-11T08:12:45;100987;;;11.76;91.80
62632;BME280;48703;51.248;-0.546;2023-05-11T08:15:47;100990;;;11.81;91.58
62632;BME280;48703;51.248;-0.546;2023-05-11T08:18:49;100994;;;11.80;90.97
62632;BME280;48703;51.248;-0.546;2023-05-11T08:21:51;100999;;;11.81;90.70
62632;BME280;48703;51.248;-0.546;2023-05-11T08:24:53;101000;;;11.82;90.88
62632;BME280;48703;51.248;-0.546;2023-05-11T08:27:55;100999;;;11.86;90.75
62632;BME280;48703;51.248;-0.546;2023-05-11T08:30:58;100998;;;11.87;90.56
62632;BME280;48703;51.248;-0.546;2023-05-11T08:33:59;100998;;;11.94;90.85
62632;BME280;48703;51.248;-0.546;2023-05-11T08:37:01;101001;;;12.02;91.79
62632;BME280;48703;51.248;-0.546;2023-05-11T08:40:04;101000;;;12.10;91.18
62632;BME280;48703;51.248;-0.546;2023-05-11T08:43:05;101001;;;12.16;91.41
62632;BME280;48703;51.248;-0.546;2023-05-11T08:46:07;101001;;;12.20;90.90
62632;BME280;48703;51.248;-0.546;2023-05-11T08:49:09;101003;;;12.30;92.21
62632;BME280;48703;51.248;-0.546;2023-05-11T08:52:11;101003;;;12.38;91.58
62632;BME280;48703;51.248;-0.546;2023-05-11T08:55:13;101006;;;12.42;89.51
62632;BME280;48703;51.248;-0.546;2023-05-11T08:58:16;101006;;;12.42;89.37
62632;BME280;48703;51.248;-0.546;2023-05-11T09:01:17;101007;;;12.49;89.89
62632;BME280;48703;51.248;-0.546;2023-05-11T09:04:19;101008;;;12.57;88.92
62632;BME280;48703;51.248;-0.546;2023-05-11T09:07:21;101006;;;12.63;88.77
62632;BME280;48703;51.248;-0.546;2023-05-11T09:10:23;101004;;;12.72;90.24
62632;BME280;48703;51.248;-0.546;2023-05-11T09:13:25;101007;;;12.81;90.29
62632;BME280;48703;51.248;-0.546;2023-05-11T09:16:28;101010;;;12.84;88.97
62632;BME280;48703;51.248;-0.546;2023-05-11T09:19:29;101008;;;12.84;88.46
62632;BME280;48703;51.248;-0.546;2023-05-11T09:22:32;101008;;;12.89;88.89
62632;BME280;48703;51.248;-0.546;2023-05-11T09:25:34;101008;;;12.95;89.47
62632;BME280;48703;51.248;-0.546;2023-05-11T09:28:35;101007;;;12.99;89.48
62632;BME280;48703;51.248;-0.546;2023-05-11T09:31:38;101008;;;13.03;88.89
62632;BME280;48703;51.248;-0.546;2023-05-11T09:34:40;101008;;;13.03;87.37
62632;BME280;48703;51.248;-0.546;2023-05-11T09:37:42;101005;;;13.02;86.24
62632;BME280;48703;51.248;-0.546;2023-05-11T09:40:49;101006;;;13.01;85.33
62632;BME280;48703;51.248;-0.546;2023-05-11T09:43:46;101006;;;13.00;86.63
62632;BME280;48703;51.248;-0.546;2023-05-11T09:46:48;101007;;;13.05;86.89
62632;BME280;48703;51.248;-0.546;2023-05-11T09:49:50;101009;;;13.10;86.65
62632;BME280;48703;51.248;-0.546;2023-05-11T09:52:52;101008;;;13.23;87.05
62632;BME280;48703;51.248;-0.546;2023-05-11T09:55:54;101004;;;13.40;86.17
62632;BME280;48703;51.248;-0.546;2023-05-11T09:58:56;101000;;;13.47;84.19
62632;BME280;48703;51.248;-0.546;2023-05-11T10:01:58;100999;;;13.60;84.55
62632;BME280;48703;51.248;-0.546;2023-05-11T10:05:00;100998;;;13.78;85.64
62632;BME280;48703;51.248;-0.546;2023-05-11T10:08:02;100998;;;13.92;81.88
62632;BME280;48703;51.248;-0.546;2023-05-11T10:11:04;100995;;;13.98;79.86
62632;BME280;48703;51.248;-0.546;2023-05-11T10:14:06;100995;;;14.15;82.80
62632;BME280;48703;51.248;-0.546;2023-05-11T10:17:08;100996;;;14.28;82.56
62632;BME280;48703;51.248;-0.546;2023-05-11T10:20:10;100995;;;14.38;81.27
62632;BME280;48703;51.248;-0.546;2023-05-11T10:23:12;100994;;;14.46;81.05
62632;BME280;48703;51.248;-0.546;2023-05-11T10:26:14;100999;;;14.53;79.78
62632;BME280;48703;51.248;-0.546;2023-05-11T10:29:16;100999;;;14.57;78.71
62632;BME280;48703;51.248;-0.546;2023-05-11T10:32:18;100999;;;14.69;78.31
62632;BME280;48703;51.248;-0.546;2023-05-11T10:35:20;100998;;;14.84;79.69
62632;BME280;48703;51.248;-0.546;2023-05-11T10:38:23;100994;;;14.90;78.80
62632;BME280;48703;51.248;-0.546;2023-05-11T10:41:28;100992;;;14.98;77.60
62632;BME280;48703;51.248;-0.546;2023-05-11T10:44:32;100993;;;15.02;75.15
62632;BME280;48703;51.248;-0.546;2023-05-11T10:47:33;100988;;;15.11;74.41
62632;BME280;48703;51.248;-0.546;2023-05-11T10:50:34;100984;;;15.21;73.76
62632;BME280;48703;51.248;-0.546;2023-05-11T10:53:52;100981;;;15.25;75.92
62632;BME280;48703;51.248;-0.546;2023-05-11T10:56:51;100978;;;15.28;76.73
62632;BME280;48703;51.248;-0.546;2023-05-11T10:59:49;100978;;;15.30;76.13
62632;BME280;48703;51.248;-0.546;2023-05-11T11:02:38;100980;;;15.24;74.84
62632;BME280;48703;51.248;-0.546;2023-05-11T11:05:40;100975;;;15.19;72.37
62632;BME280;48703;51.248;-0.546;2023-05-11T11:08:53;100974;;;15.16;73.28
62632;BME280;48703;51.248;-0.546;2023-05-11T11:11:45;100971;;;15.12;74.18
62632;BME280;48703;51.248;-0.546;2023-05-11T11:15:02;100974;;;15.09;73.04
62632;BME280;48703;51.248;-0.546;2023-05-11T11:17:48;100972;;;15.06;74.82
62632;BME280;48703;51.248;-0.546;2023-05-11T11:20:51;100969;;;15.06;71.94
62632;BME280;48703;51.248;-0.546;2023-05-11T11:23:52;100967;;;15.03;70.91
62632;BME280;48703;51.248;-0.546;2023-05-11T11:26:54;100963;;;15.04;72.73
62632;BME280;48703;51.248;-0.546;2023-05-11T11:30:29;100962;;;15.05;72.39
62632;BME280;48703;51.248;-0.546;2023-05-11T11:33:32;100960;;;15.08;73.06
62632;BME280;48703;51.248;-0.546;2023-05-11T11:36:00;100959;;;15.04;67.52
62632;BME280;48703;51.248;-0.546;2023-05-11T11:39:02;100956;;;15.02;67.75
62632;BME280;48703;51.248;-0.546;2023-05-11T11:42:05;100953;;;15.05;70.81
62632;BME280;48703;51.248;-0.546;2023-05-11T11:45:39;100948;;;15.09;69.34
62632;BME280;48703;51.248;-0.546;2023-05-11T11:48:10;100944;;;15.16;69.95
62632;BME280;48703;51.248;-0.546;2023-05-11T11:51:11;100940;;;15.23;71.43
62632;BME280;48703;51.248;-0.546;2023-05-11T11:54:13;100938;;;15.31;70.16
62632;BME280;48703;51.248;-0.546;2023-05-11T11:57:47;100940;;;15.42;70.13
62632;BME280;48703;51.248;-0.546;2023-05-11T12:00:19;100943;;;15.47;66.07
62632;BME280;48703;51.248;-0.546;2023-05-11T12:03:21;100941;;;15.45;66.27
62632;BME280;48703;51.248;-0.546;2023-05-11T12:06:21;100941;;;15.49;66.54
62632;BME280;48703;51.248;-0.546;2023-05-11T12:09:23;100941;;;15.50;64.62
62632;BME280;48703;51.248;-0.546;2023-05-11T12:12:25;100941;;;15.44;61.84
62632;BME280;48703;51.248;-0.546;2023-05-11T12:15:27;100940;;;15.38;65.27
62632;BME280;48703;51.248;-0.546;2023-05-11T12:18:29;100938;;;15.33;65.65
62632;BME280;48703;51.248;-0.546;2023-05-11T12:21:31;100937;;;15.26;62.66
62632;BME280;48703;51.248;-0.546;2023-05-11T12:24:33;100936;;;15.22;61.67
62632;BME280;48703;51.248;-0.546;2023-05-11T12:27:35;100934;;;15.20;62.03
62632;BME280;48703;51.248;-0.546;2023-05-11T12:30:37;100932;;;15.20;63.62
62632;BME280;48703;51.248;-0.546;2023-05-11T12:33:43;100933;;;15.22;65.95
62632;BME280;48703;51.248;-0.546;2023-05-11T12:36:41;100932;;;15.22;63.71
62632;BME280;48703;51.248;-0.546;2023-05-11T12:39:43;100930;;;15.22;66.35
62632;BME280;48703;51.248;-0.546;2023-05-11T12:42:48;100928;;;15.22;62.77
62632;BME280;48703;51.248;-0.546;2023-05-11T12:45:47;100927;;;15.25;60.98
62632;BME280;48703;51.248;-0.546;2023-05-11T12:48:49;100926;;;15.28;58.63
62632;BME280;48703;51.248;-0.546;2023-05-11T12:51:58;100924;;;15.33;60.66
62632;BME280;48703;51.248;-0.546;2023-05-11T12:54:53;100922;;;15.38;60.28
62632;BME280;48703;51.248;-0.546;2023-05-11T12:58:05;100923;;;15.48;59.12
62632;BME280;48703;51.248;-0.546;2023-05-11T13:00:57;100921;;;15.64;58.91
62632;BME280;48703;51.248;-0.546;2023-05-11T13:03:59;100920;;;15.76;59.80
62632;BME280;48703;51.248;-0.546;2023-05-11T13:07:01;100919;;;15.90;59.55
62632;BME280;48703;51.248;-0.546;2023-05-11T13:10:03;100917;;;16.03;61.27
62632;BME280;48703;51.248;-0.546;2023-05-11T13:13:05;100915;;;16.13;57.23
62632;BME280;48703;51.248;-0.546;2023-05-11T13:16:07;100916;;;16.15;59.22
62632;BME280;48703;51.248;-0.546;2023-05-11T13:19:09;100918;;;16.14;58.83
62632;BME280;48703;51.248;-0.546;2023-05-11T13:22:11;100918;;;16.12;58.49
62632;BME280;48703;51.248;-0.546;2023-05-11T13:25:13;100919;;;16.05;55.36
62632;BME280;48703;51.248;-0.546;2023-05-11T13:28:16;100918;;;16.01;58.21
62632;BME280;48703;51.248;-0.546;2023-05-11T13:31:17;100917;;;15.98;58.27
62632;BME280;48703;51.248;-0.546;2023-05-11T13:34:19;100916;;;15.95;59.02
62632;BME280;48703;51.248;-0.546;2023-05-11T13:37:21;100915;;;15.92;61.67
62632;BME280;48703;51.248;-0.546;2023-05-11T13:40:23;100912;;;15.91;63.55
62632;BME280;48703;51.248;-0.546;2023-05-11T13:43:25;100914;;;15.91;60.38
62632;BME280;48703;51.248;-0.546;2023-05-11T13:46:27;100917;;;15.89;59.94
62632;BME280;48703;51.248;-0.546;2023-05-11T13:49:29;100916;;;15.87;63.63
62632;BME280;48703;51.248;-0.546;2023-05-11T13:52:31;100916;;;15.89;63.64
62632;BME280;48703;51.248;-0.546;2023-05-11T13:55:34;100916;;;15.92;64.98
62632;BME280;48703;51.248;-0.546;2023-05-11T13:58:35;100915;;;15.92;64.70
62632;BME280;48703;51.248;-0.546;2023-05-11T14:01:37;100913;;;15.93;64.56
62632;BME280;48703;51.248;-0.546;2023-05-11T14:04:39;100913;;;15.92;62.05
62632;BME280;48703;51.248;-0.546;2023-05-11T14:07:41;100912;;;15.95;63.48
62632;BME280;48703;51.248;-0.546;2023-05-11T14:10:43;100910;;;16.01;63.78
62632;BME280;48703;51.248;-0.546;2023-05-11T14:13:45;100907;;;16.07;64.23
62632;BME280;48703;51.248;-0.546;2023-05-11T14:16:47;100904;;;16.25;65.18
62632;BME280;48703;51.248;-0.546;2023-05-11T14:19:49;100905;;;16.42;65.66
62632;BME280;48703;51.248;-0.546;2023-05-11T14:22:51;100908;;;16.58;65.04
62632;BME280;48703;51.248;-0.546;2023-05-11T14:25:54;100908;;;16.65;64.61
62632;BME280;48703;51.248;-0.546;2023-05-11T14:28:55;100905;;;16.71;63.17
62632;BME280;48703;51.248;-0.546;2023-05-11T14:31:57;100903;;;16.78;65.79
62632;BME280;48703;51.248;-0.546;2023-05-11T14:34:59;100902;;;16.78;64.71
62632;BME280;48703;51.248;-0.546;2023-05-11T14:38:01;100901;;;16.80;64.65
62632;BME280;48703;51.248;-0.546;2023-05-11T14:41:04;100901;;;16.79;65.22
62632;BME280;48703;51.248;-0.546;2023-05-11T14:44:05;100903;;;16.78;66.22
62632;BME280;48703;51.248;-0.546;2023-05-11T14:47:08;100906;;;16.78;65.57
62632;BME280;48703;51.248;-0.546;2023-05-11T14:50:10;100907;;;16.86;66.19
62632;BME280;48703;51.248;-0.546;2023-05-11T14:53:12;100909;;;16.88;66.14
62632;BME280;48703;51.248;-0.546;2023-05-11T14:56:14;100914;;;16.82;65.17
62632;BME280;48703;51.248;-0.546;2023-05-11T14:59:16;100915;;;16.73;65.66
62632;BME280;48703;51.248;-0.546;2023-05-11T15:02:18;100914;;;16.64;65.76
62632;BME280;48703;51.248;-0.546;2023-05-11T15:05:20;100917;;;16.56;65.34
62632;BME280;48703;51.248;-0.546;2023-05-11T15:08:22;100925;;;16.45;64.50
62632;BME280;48703;51.248;-0.546;2023-05-11T15:11:24;100932;;;16.33;64.78
62632;BME280;48703;51.248;-0.546;2023-05-11T15:14:26;100948;;;16.23;64.26
62632;BME280;48703;51.248;-0.546;2023-05-11T15:17:28;100951;;;16.07;61.77
62632;BME280;48703;51.248;-0.546;2023-05-11T15:20:30;100954;;;15.91;61.45
62632;BME280;48703;51.248;-0.546;2023-05-11T15:23:32;100962;;;15.76;63.04
62632;BME280;48703;51.248;-0.546;2023-05-11T15:26:34;100968;;;15.48;66.22
62632;BME280;48703;51.248;-0.546;2023-05-11T15:29:36;100968;;;15.13;70.24
62632;BME280;48703;51.248;-0.546;2023-05-11T15:32:38;100967;;;14.80;72.37
62632;BME280;48703;51.248;-0.546;2023-05-11T15:35:40;100965;;;14.54;73.78
62632;BME280;48703;51.248;-0.546;2023-05-11T15:38:42;100965;;;14.35;75.18
62632;BME280;48703;51.248;-0.546;2023-05-11T15:41:44;100965;;;14.20;75.70
62632;BME280;48703;51.248;-0.546;2023-05-11T15:44:46;100964;;;14.11;76.04
62632;BME280;48703;51.248;-0.546;2023-05-11T15:47:48;100967;;;14.03;76.41
62632;BME280;48703;51.248;-0.546;2023-05-11T15:50:50;100965;;;13.96;76.89
62632;BME280;48703;51.248;-0.546;2023-05-11T15:53:52;100966;;;13.88;76.94
62632;BME280;48703;51.248;-0.546;2023-05-11T15:56:54;100964;;;13.87;78.58
62632;BME280;48703;51.248;-0.546;2023-05-11T15:59:56;100965;;;13.80;78.19
62632;BME280;48703;51.248;-0.546;2023-05-11T16:02:58;100967;;;13.80;77.97
62632;BME280;48703;51.248;-0.546;2023-05-11T16:06:00;100974;;;13.74;78.08
62632;BME280;48703;51.248;-0.546;2023-05-11T16:09:02;100978;;;13.61;80.00
62632;BME280;48703;51.248;-0.546;2023-05-11T16:12:04;100983;;;13.57;80.03
62632;BME280;48703;51.248;-0.546;2023-05-11T16:15:07;100986;;;13.50;80.23
62632;BME280;48703;51.248;-0.546;2023-05-11T16:18:08;100990;;;13.44;80.19